sensor_id;sensor_type;location;lat;lon;timestamp;pressure;altitude;pressure_sealevel;temperature;humidity
57232;BME280;43488;46.934;8.276;2023-08-30T00:02:12;95993.41;;;12.85;100.00
57232;BME280;43488;46.934;8.276;2023-08-30T00:04:42;95988.66;;;12.87;100.00
57232;BME280;43488;46.934;8.276;2023-08-30T00:07:09;95980.97;;;12.86;100.00
57232;BME280;43488;46.934;8.276;2023-08-30T00:09:37;95981.53;;;12.88;100.00
57232;BME280;43488;46.934;8.276;2023-08-30T00:12:05;95988.44;;;12.89;100.00
57232;BME280;43488;46.934;8.276;2023-08-30T00:14:33;95981.47;;;12.82;100.00
57232;BME280;43488;46.934;8.276;2023-08-30T00:17:00;95995.13;;;12.79;100.00
57232;BME280;43488;46.934;8.276;2023-08-30T00:19:27;95986.38;;;12.79;100.00
57232;BME280;43488;46.934;8.276;2023-08-30T00:21:55;95988.91;;;12.86;100.00
57232;BME280;43488;46.934;8.276;2023-08-30T00:24:22;95987.06;;;12.86;100.00
57232;BME280;43488;46.934;8.276;2023-08-30T00:26:50;95981.47;;;12.82;100.00
57232;BME280;43488;46.934;8.276;2023-08-30T00:29:17;95981.69;;;12.81;100.00
57232;BME280;43488;46.934;8.276;2023-08-30T00:31:44;95982.25;;;12.83;100.00
57232;BME280;43488;46.934;8.276;2023-08-30T00:34:12;95975.94;;;12.84;100.00
57232;BME280;43488;46.934;8.276;2023-08-30T00:36:39;95986.59;;;12.89;100.00
57232;BME280;43488;46.934;8.276;2023-08-30T00:39:08;95985.47;;;12.85;100.00
57232;BME280;43488;46.934;8.276;2023-08-30T00:41:36;95985.78;;;12.89;100.00
57232;BME280;43488;46.934;8.276;2023-08-30T00:44:04;95984.78;;;12.90;100.00
57232;BME280;43488;46.934;8.276;2023-08-30T00:46:33;95986.16;;;12.92;100.00
57232;BME280;43488;46.934;8.276;2023-08-30T00:49:01;95983.50;;;12.92;100.00
57232;BME280;43488;46.934;8.276;2023-08-30T00:51:29;95982.47;;;12.93;100.00
57232;BME280;43488;46.934;8.276;2023-08-30T00:53:59;95979.25;;;12.91;100.00
57232;BME280;43488;46.934;8.276;2023-08-30T00:56:28;95980.31;;;12.90;100.00
57232;BME280;43488;46.934;8.276;2023-08-30T00:58:56;95984.44;;;12.86;100.00
57232;BME280;43488;46.934;8.276;2023-08-30T01:01:23;95973.53;;;12.82;100.00
57232;BME280;43488;46.934;8.276;2023-08-30T01:03:51;95967.34;;;12.77;100.00
57232;BME280;43488;46.934;8.276;2023-08-30T01:06:18;95976.19;;;12.71;100.00
57232;BME280;43488;46.934;8.276;2023-08-30T01:08:45;95966.91;;;12.68;100.00
57232;BME280;43488;46.934;8.276;2023-08-30T01:11:43;95968.75;;;12.68;100.00
57232;BME280;43488;46.934;8.276;2023-08-30T01:14:22;95978.81;;;12.71;100.00
57232;BME280;43488;46.934;8.276;2023-08-30T01:16:54;95975.19;;;12.72;100.00
57232;BME280;43488;46.934;8.276;2023-08-30T01:19:48;95966.78;;;12.75;100.00
57232;BME280;43488;46.934;8.276;2023-08-30T01:22:38;95971.94;;;12.81;100.00
57232;BME280;43488;46.934;8.276;2023-08-30T01:28:19;95976.75;;;12.85;100.00
57232;BME280;43488;46.934;8.276;2023-08-30T01:30:48;95970.53;;;12.79;100.00
57232;BME280;43488;46.934;8.276;2023-08-30T01:33:16;95975.38;;;12.82;100.00
57232;BME280;43488;46.934;8.276;2023-08-30T01:35:46;95975.63;;;12.80;100.00
57232;BME280;43488;46.934;8.276;2023-08-30T01:38:14;95969.19;;;12.76;100.00
57232;BME280;43488;46.934;8.276;2023-08-30T01:40:45;95969.31;;;12.70;100.00
57232;BME280;43488;46.934;8.276;2023-08-30T01:43:13;95963.47;;;12.68;100.00
57232;BME280;43488;46.934;8.276;2023-08-30T01:45:43;95956.56;;;12.67;100.00
57232;BME280;43488;46.934;8.276;2023-08-30T01:48:16;95962.34;;;12.64;100.00
57232;BME280;43488;46.934;8.276;2023-08-30T01:50:44;95960.81;;;12.68;100.00
57232;BME280;43488;46.934;8.276;2023-08-30T01:53:13;95957.38;;;12.67;100.00
57232;BME280;43488;46.934;8.276;2023-08-30T01:55:42;95959.22;;;12.67;100.00
57232;BME280;43488;46.934;8.276;2023-08-30T01:58:12;95953.94;;;12.67;100.00
57232;BME280;43488;46.934;8.276;2023-08-30T02:00:39;95952.91;;;12.68;100.00
57232;BME280;43488;46.934;8.276;2023-08-30T02:03:12;95953.13;;;12.66;100.00
57232;BME280;43488;46.934;8.276;2023-08-30T02:05:54;95950.50;;;12.66;100.00
57232;BME280;43488;46.934;8.276;2023-08-30T02:08:30;95949.22;;;12.69;100.00
57232;BME280;43488;46.934;8.276;2023-08-30T02:11:11;95945.88;;;12.73;100.00
57232;BME280;43488;46.934;8.276;2023-08-30T02:13:39;95945.41;;;12.76;100.00
57232;BME280;43488;46.934;8.276;2023-08-30T02:16:08;95941.97;;;12.76;100.00
57232;BME280;43488;46.934;8.276;2023-08-30T02:18:38;95935.88;;;12.75;100.00
57232;BME280;43488;46.934;8.276;2023-08-30T02:21:05;95936.44;;;12.77;100.00
57232;BME280;43488;46.934;8.276;2023-08-30T02:23:33;95934.84;;;12.76;100.00
57232;BME280;43488;46.934;8.276;2023-08-30T02:26:02;95928.53;;;12.77;100.00
57232;BME280;43488;46.934;8.276;2023-08-30T02:28:30;95933.13;;;12.82;100.00
57232;BME280;43488;46.934;8.276;2023-08-30T02:30:58;95925.19;;;12.82;100.00
57232;BME280;43488;46.934;8.276;2023-08-30T02:33:25;95923.13;;;12.84;100.00
57232;BME280;43488;46.934;8.276;2023-08-30T02:35:52;95924.84;;;12.78;100.00
57232;BME280;43488;46.934;8.276;2023-08-30T02:38:20;95917.72;;;12.79;100.00
57232;BME280;43488;46.934;8.276;2023-08-30T02:40:48;95912.69;;;12.77;100.00
57232;BME280;43488;46.934;8.276;2023-08-30T02:43:17;95916.69;;;12.80;100.00
57232;BME280;43488;46.934;8.276;2023-08-30T02:45:44;95914.03;;;12.80;100.00
57232;BME280;43488;46.934;8.276;2023-08-30T02:48:11;95916.47;;;12.81;100.00
57232;BME280;43488;46.934;8.276;2023-08-30T02:50:39;95920.22;;;12.86;100.00
57232;BME280;43488;46.934;8.276;2023-08-30T02:53:07;95918.75;;;12.90;100.00
57232;BME280;43488;46.934;8.276;2023-08-30T02:55:37;95920.09;;;12.92;100.00
57232;BME280;43488;46.934;8.276;2023-08-30T02:58:05;95915.25;;;12.89;100.00
57232;BME280;43488;46.934;8.276;2023-08-30T03:00:32;95915.25;;;12.89;100.00
57232;BME280;43488;46.934;8.276;2023-08-30T03:03:02;95914.00;;;12.92;100.00
57232;BME280;43488;46.934;8.276;2023-08-30T03:05:29;95916.09;;;12.90;100.00
57232;BME280;43488;46.934;8.276;2023-08-30T03:07:56;95912.31;;;12.86;100.00
57232;BME280;43488;46.934;8.276;2023-08-30T03:10:24;95912.22;;;12.80;100.00
57232;BME280;43488;46.934;8.276;2023-08-30T03:12:52;95914.53;;;12.77;100.00
57232;BME280;43488;46.934;8.276;2023-08-30T03:15:19;95913.84;;;12.70;100.00
57232;BME280;43488;46.934;8.276;2023-08-30T03:17:52;95915.59;;;12.64;100.00
57232;BME280;43488;46.934;8.276;2023-08-30T03:20:19;95914.22;;;12.62;100.00
57232;BME280;43488;46.934;8.276;2023-08-30T03:22:46;95917.56;;;12.57;100.00
57232;BME280;43488;46.934;8.276;2023-08-30T03:25:13;95906.09;;;12.51;100.00
57232;BME280;43488;46.934;8.276;2023-08-30T03:27:44;95908.72;;;12.51;100.00
57232;BME280;43488;46.934;8.276;2023-08-30T03:30:12;95914.00;;;12.51;100.00
57232;BME280;43488;46.934;8.276;2023-08-30T03:32:39;95908.28;;;12.55;100.00
57232;BME280;43488;46.934;8.276;2023-08-30T03:35:07;95908.72;;;12.51;100.00
57232;BME280;43488;46.934;8.276;2023-08-30T03:37:35;95906.88;;;12.52;100.00
57232;BME280;43488;46.934;8.276;2023-08-30T03:40:02;95909.09;;;12.55;100.00
57232;BME280;43488;46.934;8.276;2023-08-30T03:42:35;95902.28;;;12.59;100.00
57232;BME280;43488;46.934;8.276;2023-08-30T03:45:02;95911.13;;;12.65;100.00
57232;BME280;43488;46.934;8.276;2023-08-30T03:47:32;95916.28;;;12.71;100.00
57232;BME280;43488;46.934;8.276;2023-08-30T03:50:00;95903.63;;;12.73;100.00
57232;BME280;43488;46.934;8.276;2023-08-30T03:52:27;95915.06;;;12.79;100.00
57232;BME280;43488;46.934;8.276;2023-08-30T03:54:55;95913.81;;;12.81;100.00
57232;BME280;43488;46.934;8.276;2023-08-30T03:57:22;95917.28;;;12.82;100.00
57232;BME280;43488;46.934;8.276;2023-08-30T03:59:50;95921.50;;;12.83;100.00
57232;BME280;43488;46.934;8.276;2023-08-30T04:02:18;95919.00;;;12.76;100.00
57232;BME280;43488;46.934;8.276;2023-08-30T04:04:49;95917.41;;;12.75;100.00
57232;BME280;43488;46.934;8.276;2023-08-30T04:07:16;95923.81;;;12.79;100.00
57232;BME280;43488;46.934;8.276;2023-08-30T04:09:43;95921.06;;;12.74;100.00
57232;BME280;43488;46.934;8.276;2023-08-30T04:12:11;95921.56;;;12.71;100.00
57232;BME280;43488;46.934;8.276;2023-08-30T04:14:39;95924.41;;;12.70;100.00
57232;BME280;43488;46.934;8.276;2023-08-30T04:17:06;95919.84;;;12.65;100.00
57232;BME280;43488;46.934;8.276;2023-08-30T04:19:34;95929.47;;;12.71;100.00
57232;BME280;43488;46.934;8.276;2023-08-30T04:22:01;95918.56;;;12.68;100.00
57232;BME280;43488;46.934;8.276;2023-08-30T04:24:32;95923.03;;;12.67;100.00
57232;BME280;43488;46.934;8.276;2023-08-30T04:26:59;95926.63;;;12.61;100.00
57232;BME280;43488;46.934;8.276;2023-08-30T04:29:28;95922.59;;;12.59;100.00
57232;BME280;43488;46.934;8.276;2023-08-30T04:31:55;95923.41;;;12.59;100.00
57232;BME280;43488;46.934;8.276;2023-08-30T04:34:22;95919.16;;;12.58;100.00
57232;BME280;43488;46.934;8.276;2023-08-30T04:36:50;95924.94;;;12.55;100.00
57232;BME280;43488;46.934;8.276;2023-08-30T04:39:17;95912.03;;;12.59;100.00
57232;BME280;43488;46.934;8.276;2023-08-30T04:41:45;95914.81;;;12.64;100.00
57232;BME280;43488;46.934;8.276;2023-08-30T04:44:12;95921.22;;;12.68;100.00
57232;BME280;43488;46.934;8.276;2023-08-30T04:46:40;95924.19;;;12.71;100.00
57232;BME280;43488;46.934;8.276;2023-08-30T04:49:08;95928.44;;;12.72;100.00
57232;BME280;43488;46.934;8.276;2023-08-30T04:51:35;95920.97;;;12.69;100.00
57232;BME280;43488;46.934;8.276;2023-08-30T04:54:03;95919.13;;;12.70;100.00
57232;BME280;43488;46.934;8.276;2023-08-30T04:56:30;95920.66;;;12.66;100.00
57232;BME280;43488;46.934;8.276;2023-08-30T04:58:57;95932.25;;;12.65;100.00
57232;BME280;43488;46.934;8.276;2023-08-30T05:01:25;95936.72;;;12.64;100.00
57232;BME280;43488;46.934;8.276;2023-08-30T05:03:53;95926.16;;;12.64;100.00
57232;BME280;43488;46.934;8.276;2023-08-30T05:06:20;95926.16;;;12.64;100.00
57232;BME280;43488;46.934;8.276;2023-08-30T05:08:48;95933.84;;;12.66;100.00
57232;BME280;43488;46.934;8.276;2023-08-30T05:11:15;95930.41;;;12.65;100.00
57232;BME280;43488;46.934;8.276;2023-08-30T05:13:43;95935.69;;;12.65;100.00
57232;BME280;43488;46.934;8.276;2023-08-30T05:16:11;95936.38;;;12.61;100.00
57232;BME280;43488;46.934;8.276;2023-08-30T05:18:38;95929.25;;;12.61;100.00
57232;BME280;43488;46.934;8.276;2023-08-30T05:21:05;95930.53;;;12.59;100.00
57232;BME280;43488;46.934;8.276;2023-08-30T05:23:33;95929.97;;;12.57;100.00
57232;BME280;43488;46.934;8.276;2023-08-30T05:26:00;95931.56;;;12.58;100.00
57232;BME280;43488;46.934;8.276;2023-08-30T05:28:27;95933.53;;;12.62;100.00
57232;BME280;43488;46.934;8.276;2023-08-30T05:30:54;95932.81;;;12.67;100.00
57232;BME280;43488;46.934;8.276;2023-08-30T05:33:22;95928.09;;;12.69;100.00
57232;BME280;43488;46.934;8.276;2023-08-30T05:35:49;95925.00;;;12.72;100.00
57232;BME280;43488;46.934;8.276;2023-08-30T05:38:16;95928.44;;;12.72;100.00
57232;BME280;43488;46.934;8.276;2023-08-30T05:40:44;95927.47;;;12.78;100.00
57232;BME280;43488;46.934;8.276;2023-08-30T05:43:12;95934.84;;;12.76;100.00
57232;BME280;43488;46.934;8.276;2023-08-30T05:45:39;95926.69;;;12.78;100.00
57232;BME280;43488;46.934;8.276;2023-08-30T05:48:08;95930.03;;;12.73;100.00
57232;BME280;43488;46.934;8.276;2023-08-30T05:50:36;95928.75;;;12.76;100.00
57232;BME280;43488;46.934;8.276;2023-08-30T05:53:03;95936.31;;;12.84;100.00
57232;BME280;43488;46.934;8.276;2023-08-30T05:55:31;95936.41;;;12.89;100.00
57232;BME280;43488;46.934;8.276;2023-08-30T05:58:00;95936.50;;;12.94;100.00
57232;BME280;43488;46.934;8.276;2023-08-30T06:00:27;95936.63;;;12.99;100.00
57232;BME280;43488;46.934;8.276;2023-08-30T06:02:54;95927.72;;;13.05;100.00
57232;BME280;43488;46.934;8.276;2023-08-30T06:05:22;95934.47;;;13.13;100.00
57232;BME280;43488;46.934;8.276;2023-08-30T06:07:49;95935.38;;;13.19;100.00
57232;BME280;43488;46.934;8.276;2023-08-30T06:10:17;95929.53;;;13.17;100.00
57232;BME280;43488;46.934;8.276;2023-08-30T06:12:44;95935.72;;;13.22;100.00
57232;BME280;43488;46.934;8.276;2023-08-30T06:15:12;95942.38;;;13.25;100.00
57232;BME280;43488;46.934;8.276;2023-08-30T06:17:39;95941.19;;;13.32;100.00
57232;BME280;43488;46.934;8.276;2023-08-30T06:20:07;95940.50;;;13.37;100.00
57232;BME280;43488;46.934;8.276;2023-08-30T06:22:35;95949.53;;;13.41;100.00
57232;BME280;43488;46.934;8.276;2023-08-30T06:25:03;95940.09;;;13.45;100.00
57232;BME280;43488;46.934;8.276;2023-08-30T06:27:31;95940.91;;;13.46;100.00
57232;BME280;43488;46.934;8.276;2023-08-30T06:29:58;95936.97;;;13.48;100.00
57232;BME280;43488;46.934;8.276;2023-08-30T06:32:25;95935.78;;;13.56;100.00
57232;BME280;43488;46.934;8.276;2023-08-30T06:34:53;95928.72;;;13.61;100.00
57232;BME280;43488;46.934;8.276;2023-08-30T06:37:21;95929.13;;;13.70;100.00
57232;BME280;43488;46.934;8.276;2023-08-30T06:39:49;95925.78;;;13.75;100.00
57232;BME280;43488;46.934;8.276;2023-08-30T06:42:17;95929.63;;;13.84;100.00
57232;BME280;43488;46.934;8.276;2023-08-30T06:44:44;95931.22;;;13.85;100.00
57232;BME280;43488;46.934;8.276;2023-08-30T06:47:12;95929.69;;;13.89;100.00
57232;BME280;43488;46.934;8.276;2023-08-30T06:49:40;95929.47;;;13.90;100.00
57232;BME280;43488;46.934;8.276;2023-08-30T06:52:08;95919.97;;;13.94;100.00
57232;BME280;43488;46.934;8.276;2023-08-30T06:54:38;95927.50;;;14.03;100.00
57232;BME280;43488;46.934;8.276;2023-08-30T06:57:06;95926.78;;;14.07;100.00
57232;BME280;43488;46.934;8.276;2023-08-30T06:59:34;95924.75;;;14.14;100.00
57232;BME280;43488;46.934;8.276;2023-08-30T07:02:03;95923.25;;;14.18;100.00
57232;BME280;43488;46.934;8.276;2023-08-30T07:04:32;95928.13;;;14.27;100.00
57232;BME280;43488;46.934;8.276;2023-08-30T07:07:00;95925.28;;;14.33;100.00
57232;BME280;43488;46.934;8.276;2023-08-30T07:09:27;95929.78;;;14.33;100.00
57232;BME280;43488;46.934;8.276;2023-08-30T07:11:59;95921.91;;;14.38;100.00
57232;BME280;43488;46.934;8.276;2023-08-30T07:14:31;95925.78;;;14.47;100.00
57232;BME280;43488;46.934;8.276;2023-08-30T07:16:58;95928.03;;;14.60;100.00
57232;BME280;43488;46.934;8.276;2023-08-30T07:19:26;95920.41;;;14.64;96.47
57232;BME280;43488;46.934;8.276;2023-08-30T07:21:54;95924.25;;;14.73;93.62
57232;BME280;43488;46.934;8.276;2023-08-30T07:24:22;95931.19;;;14.79;93.45
57232;BME280;43488;46.934;8.276;2023-08-30T07:26:50;95932.41;;;14.93;93.44
57232;BME280;43488;46.934;8.276;2023-08-30T07:29:17;95930.06;;;14.97;92.53
57232;BME280;43488;46.934;8.276;2023-08-30T07:31:44;95926.41;;;15.03;92.39
57232;BME280;43488;46.934;8.276;2023-08-30T07:34:12;95929.69;;;15.10;93.43
57232;BME280;43488;46.934;8.276;2023-08-30T07:36:42;95930.78;;;15.14;94.54
57232;BME280;43488;46.934;8.276;2023-08-30T07:39:10;95929.25;;;15.18;94.64
57232;BME280;43488;46.934;8.276;2023-08-30T07:41:37;95929.00;;;15.25;93.89
57232;BME280;43488;46.934;8.276;2023-08-30T07:44:05;95936.72;;;15.26;94.36
57232;BME280;43488;46.934;8.276;2023-08-30T07:46:32;95931.22;;;15.33;96.11
57232;BME280;43488;46.934;8.276;2023-08-30T07:49:03;95935.34;;;15.46;96.42
57232;BME280;43488;46.934;8.276;2023-08-30T07:51:30;95930.03;;;15.46;95.11
57232;BME280;43488;46.934;8.276;2023-08-30T07:53:57;95929.81;;;15.52;97.79
57232;BME280;43488;46.934;8.276;2023-08-30T07:56:25;95924.28;;;15.59;95.13
57232;BME280;43488;46.934;8.276;2023-08-30T07:58:54;95929.13;;;15.62;94.42
57232;BME280;43488;46.934;8.276;2023-08-30T08:01:23;95932.63;;;15.68;94.19
57232;BME280;43488;46.934;8.276;2023-08-30T08:03:50;95929.19;;;15.72;92.44
57232;BME280;43488;46.934;8.276;2023-08-30T08:06:17;95924.41;;;15.69;92.54
57232;BME280;43488;46.934;8.276;2023-08-30T08:08:44;95932.38;;;15.69;92.58
57232;BME280;43488;46.934;8.276;2023-08-30T08:11:12;95932.16;;;15.76;92.21
57232;BME280;43488;46.934;8.276;2023-08-30T08:13:39;95931.38;;;15.80;91.92
57232;BME280;43488;46.934;8.276;2023-08-30T08:16:08;95931.19;;;15.87;92.47
57232;BME280;43488;46.934;8.276;2023-08-30T08:18:35;95930.19;;;15.93;91.82
57232;BME280;43488;46.934;8.276;2023-08-30T08:21:02;95930.50;;;16.02;90.53
57232;BME280;43488;46.934;8.276;2023-08-30T08:23:31;95929.63;;;15.91;85.64
57232;BME280;43488;46.934;8.276;2023-08-30T08:25:59;95934.72;;;15.98;87.60
57232;BME280;43488;46.934;8.276;2023-08-30T08:28:27;95932.41;;;16.11;88.18
57232;BME280;43488;46.934;8.276;2023-08-30T08:30:54;95926.13;;;16.23;85.57
57232;BME280;43488;46.934;8.276;2023-08-30T08:33:22;95925.31;;;16.22;84.43
57232;BME280;43488;46.934;8.276;2023-08-30T08:35:50;95921.50;;;16.08;83.99
57232;BME280;43488;46.934;8.276;2023-08-30T08:38:18;95933.00;;;16.18;85.74
57232;BME280;43488;46.934;8.276;2023-08-30T08:40:45;95929.09;;;16.36;83.89
57232;BME280;43488;46.934;8.276;2023-08-30T08:43:12;95927.31;;;16.52;83.22
57232;BME280;43488;46.934;8.276;2023-08-30T08:45:39;95927.66;;;16.66;80.98
57232;BME280;43488;46.934;8.276;2023-08-30T08:48:07;95929.34;;;16.77;79.80
57232;BME280;43488;46.934;8.276;2023-08-30T08:50:35;95924.88;;;16.93;79.04
57232;BME280;43488;46.934;8.276;2023-08-30T08:53:03;95927.56;;;17.08;79.27
57232;BME280;43488;46.934;8.276;2023-08-30T08:55:31;95930.00;;;17.20;76.97
57232;BME280;43488;46.934;8.276;2023-08-30T08:58:00;95931.59;;;17.26;79.72
57232;BME280;43488;46.934;8.276;2023-08-30T09:00:31;95931.63;;;17.31;77.97
57232;BME280;43488;46.934;8.276;2023-08-30T09:02:59;95934.81;;;17.43;74.70
57232;BME280;43488;46.934;8.276;2023-08-30T09:05:27;95932.72;;;17.50;75.50
57232;BME280;43488;46.934;8.276;2023-08-30T09:07:56;95932.72;;;17.60;75.59
57232;BME280;43488;46.934;8.276;2023-08-30T09:10:24;95937.28;;;17.70;75.53
57232;BME280;43488;46.934;8.276;2023-08-30T09:12:52;95938.81;;;17.51;73.39
57232;BME280;43488;46.934;8.276;2023-08-30T09:15:20;95937.78;;;17.67;71.94
57232;BME280;43488;46.934;8.276;2023-08-30T09:17:50;95939.16;;;17.85;66.76
57232;BME280;43488;46.934;8.276;2023-08-30T09:20:17;95935.41;;;17.96;67.49
57232;BME280;43488;46.934;8.276;2023-08-30T09:22:47;95933.81;;;18.05;65.66
57232;BME280;43488;46.934;8.276;2023-08-30T09:25:27;95931.66;;;18.12;65.76
57232;BME280;43488;46.934;8.276;2023-08-30T09:27:58;95936.44;;;18.26;65.41
57232;BME280;43488;46.934;8.276;2023-08-30T09:30:27;95936.16;;;18.27;63.25
57232;BME280;43488;46.934;8.276;2023-08-30T09:32:54;95936.41;;;18.41;63.35
57232;BME280;43488;46.934;8.276;2023-08-30T09:35:29;95938.53;;;18.49;64.25
57232;BME280;43488;46.934;8.276;2023-08-30T09:37:56;95930.75;;;18.63;65.62
57232;BME280;43488;46.934;8.276;2023-08-30T09:40:24;95927.84;;;18.59;64.45
57232;BME280;43488;46.934;8.276;2023-08-30T09:42:51;95929.97;;;18.67;66.39
57232;BME280;43488;46.934;8.276;2023-08-30T09:45:22;95927.31;;;18.67;61.85
57232;BME280;43488;46.934;8.276;2023-08-30T09:47:50;95930.50;;;18.59;64.65
57232;BME280;43488;46.934;8.276;2023-08-30T09:50:20;95932.69;;;18.27;66.59
57232;BME280;43488;46.934;8.276;2023-08-30T09:52:48;95926.00;;;18.50;65.25
57232;BME280;43488;46.934;8.276;2023-08-30T09:55:16;95925.41;;;18.63;65.45
57232;BME280;43488;46.934;8.276;2023-08-30T09:57:45;95916.69;;;18.47;67.20
57232;BME280;43488;46.934;8.276;2023-08-30T10:00:14;95918.75;;;18.55;69.07
57232;BME280;43488;46.934;8.276;2023-08-30T10:02:44;95916.63;;;18.62;69.28
57232;BME280;43488;46.934;8.276;2023-08-30T10:05:12;95911.28;;;18.62;66.97
57232;BME280;43488;46.934;8.276;2023-08-30T10:07:41;95904.91;;;18.68;67.28
57232;BME280;43488;46.934;8.276;2023-08-30T10:10:11;95904.78;;;18.94;66.92
57232;BME280;43488;46.934;8.276;2023-08-30T10:12:41;95901.00;;;19.00;65.88
57232;BME280;43488;46.934;8.276;2023-08-30T10:15:11;95904.69;;;19.09;65.10
57232;BME280;43488;46.934;8.276;2023-08-30T10:17:40;95894.28;;;19.13;62.57
57232;BME280;43488;46.934;8.276;2023-08-30T10:20:10;95894.34;;;19.02;62.11
57232;BME280;43488;46.934;8.276;2023-08-30T10:22:41;95902.50;;;19.21;59.93
57232;BME280;43488;46.934;8.276;2023-08-30T10:25:14;95899.78;;;19.26;59.27
57232;BME280;43488;46.934;8.276;2023-08-30T10:27:47;95893.84;;;19.40;59.66
57232;BME280;43488;46.934;8.276;2023-08-30T10:30:17;95895.09;;;19.52;59.47
57232;BME280;43488;46.934;8.276;2023-08-30T10:32:45;95888.31;;;19.65;59.88
57232;BME280;43488;46.934;8.276;2023-08-30T10:35:18;95878.22;;;19.62;60.56
57232;BME280;43488;46.934;8.276;2023-08-30T10:37:57;95885.19;;;19.58;59.37
57232;BME280;43488;46.934;8.276;2023-08-30T10:40:26;95879.31;;;19.56;61.03
57232;BME280;43488;46.934;8.276;2023-08-30T10:43:03;95877.28;;;19.43;59.47
57232;BME280;43488;46.934;8.276;2023-08-30T10:45:31;95868.00;;;19.69;63.90
57232;BME280;43488;46.934;8.276;2023-08-30T10:47:59;95876.88;;;19.94;61.45
57232;BME280;43488;46.934;8.276;2023-08-30T10:50:31;95867.19;;;20.03;59.38
57232;BME280;43488;46.934;8.276;2023-08-30T10:52:59;95872.84;;;20.20;58.92
57232;BME280;43488;46.934;8.276;2023-08-30T10:55:27;95874.28;;;20.36;60.03
57232;BME280;43488;46.934;8.276;2023-08-30T10:58:02;95865.09;;;20.48;57.80
57232;BME280;43488;46.934;8.276;2023-08-30T11:00:30;95862.16;;;20.20;59.18
57232;BME280;43488;46.934;8.276;2023-08-30T11:02:58;95857.78;;;20.29;53.96
57232;BME280;43488;46.934;8.276;2023-08-30T11:05:26;95863.56;;;20.41;53.49
57232;BME280;43488;46.934;8.276;2023-08-30T11:07:55;95855.91;;;20.59;53.23
57232;BME280;43488;46.934;8.276;2023-08-30T11:10:23;95858.38;;;20.74;55.37
57232;BME280;43488;46.934;8.276;2023-08-30T11:12:51;95854.56;;;20.80;56.44
57232;BME280;43488;46.934;8.276;2023-08-30T11:15:18;95851.69;;;20.95;56.09
57232;BME280;43488;46.934;8.276;2023-08-30T11:17:47;95852.25;;;21.11;55.68
57232;BME280;43488;46.934;8.276;2023-08-30T11:20:16;95849.50;;;20.79;57.72
57232;BME280;43488;46.934;8.276;2023-08-30T11:22:47;95842.06;;;20.94;59.55
57232;BME280;43488;46.934;8.276;2023-08-30T11:25:15;95843.56;;;21.00;58.33
57232;BME280;43488;46.934;8.276;2023-08-30T11:27:43;95844.28;;;21.25;56.74
57232;BME280;43488;46.934;8.276;2023-08-30T11:30:11;95842.63;;;21.10;58.77
57232;BME280;43488;46.934;8.276;2023-08-30T11:32:41;95846.19;;;21.06;57.23
57232;BME280;43488;46.934;8.276;2023-08-30T11:35:12;95844.81;;;20.89;58.98
57232;BME280;43488;46.934;8.276;2023-08-30T11:37:40;95848.28;;;21.27;58.39
57232;BME280;43488;46.934;8.276;2023-08-30T11:40:11;95843.63;;;21.52;56.77
57232;BME280;43488;46.934;8.276;2023-08-30T11:42:43;95845.38;;;21.43;57.67
57232;BME280;43488;46.934;8.276;2023-08-30T11:45:14;95844.09;;;21.40;56.67
57232;BME280;43488;46.934;8.276;2023-08-30T11:47:43;95845.88;;;21.45;56.82
57232;BME280;43488;46.934;8.276;2023-08-30T11:50:11;95849.59;;;21.30;59.29
57232;BME280;43488;46.934;8.276;2023-08-30T11:52:39;95851.59;;;21.00;57.94
57232;BME280;43488;46.934;8.276;2023-08-30T11:55:07;95853.19;;;21.01;58.02
57232;BME280;43488;46.934;8.276;2023-08-30T11:57:36;95850.88;;;20.76;57.77
57232;BME280;43488;46.934;8.276;2023-08-30T12:00:13;95851.69;;;20.53;57.37
57232;BME280;43488;46.934;8.276;2023-08-30T12:02:41;95858.38;;;20.26;57.47
57232;BME280;43488;46.934;8.276;2023-08-30T12:05:13;95854.25;;;20.10;55.95
57232;BME280;43488;46.934;8.276;2023-08-30T12:07:41;95853.81;;;20.03;58.55
57232;BME280;43488;46.934;8.276;2023-08-30T12:10:10;95871.75;;;19.97;59.02
57232;BME280;43488;46.934;8.276;2023-08-30T12:12:44;95867.97;;;19.74;59.64
57232;BME280;43488;46.934;8.276;2023-08-30T12:15:13;95874.97;;;19.65;61.47
57232;BME280;43488;46.934;8.276;2023-08-30T12:17:43;95877.75;;;19.84;61.59
57232;BME280;43488;46.934;8.276;2023-08-30T12:20:17;95875.72;;;19.76;60.17
57232;BME280;43488;46.934;8.276;2023-08-30T12:22:47;95878.22;;;19.62;61.14
57232;BME280;43488;46.934;8.276;2023-08-30T12:25:20;95873.66;;;19.63;62.60
57232;BME280;43488;46.934;8.276;2023-08-30T12:27:48;95883.84;;;19.55;61.55
57232;BME280;43488;46.934;8.276;2023-08-30T12:30:16;95879.66;;;19.44;60.92
57232;BME280;43488;46.934;8.276;2023-08-30T12:32:47;95883.91;;;19.45;62.99
57232;BME280;43488;46.934;8.276;2023-08-30T12:35:15;95878.91;;;19.39;62.46
57232;BME280;43488;46.934;8.276;2023-08-30T12:37:42;95878.66;;;19.35;62.44
57232;BME280;43488;46.934;8.276;2023-08-30T12:40:10;95874.69;;;19.32;61.95
57232;BME280;43488;46.934;8.276;2023-08-30T12:42:41;95874.97;;;19.31;62.47
57232;BME280;43488;46.934;8.276;2023-08-30T12:45:09;95874.19;;;19.25;61.72
57232;BME280;43488;46.934;8.276;2023-08-30T12:47:37;95870.50;;;19.21;62.82
57232;BME280;43488;46.934;8.276;2023-08-30T12:50:06;95876.84;;;19.25;63.59
57232;BME280;43488;46.934;8.276;2023-08-30T12:52:33;95878.97;;;19.28;64.18
57232;BME280;43488;46.934;8.276;2023-08-30T12:55:01;95883.78;;;19.26;63.30
57232;BME280;43488;46.934;8.276;2023-08-30T12:57:28;95877.16;;;19.19;61.69
57232;BME280;43488;46.934;8.276;2023-08-30T12:59:55;95881.97;;;19.17;61.84
57232;BME280;43488;46.934;8.276;2023-08-30T13:02:23;95882.03;;;19.12;61.16
57232;BME280;43488;46.934;8.276;2023-08-30T13:04:50;95881.53;;;19.04;61.34
57232;BME280;43488;46.934;8.276;2023-08-30T13:07:18;95882.31;;;19.05;60.77